sensor_id;sensor_type;location;lat;lon;timestamp;temperature;humidity
3860;DHT22;1945;52.036;8.614;2023-04-24T00:01:33;11.20;99.90
3860;DHT22;1945;52.036;8.614;2023-04-24T00:04:02;11.20;99.90
3860;DHT22;1945;52.036;8.614;2023-04-24T00:06:29;11.10;99.90
3860;DHT22;1945;52.036;8.614;2023-04-24T00:09:00;11.10;99.90
3860;DHT22;1945;52.036;8.614;2023-04-24T00:11:27;11.10;99.90
3860;DHT22;1945;52.036;8.614;2023-04-24T00:13:54;11.10;99.90
3860;DHT22;1945;52.036;8.614;2023-04-24T00:16:20;11.10;99.90
3860;DHT22;1945;52.036;8.614;2023-04-24T00:18:47;11.00;99.90
3860;DHT22;1945;52.036;8.614;2023-04-24T00:21:14;11.00;99.90
3860;DHT22;1945;52.036;8.614;2023-04-24T00:23:41;11.00;99.90
3860;DHT22;1945;52.036;8.614;2023-04-24T00:26:10;11.00;99.90
3860;DHT22;1945;52.036;8.614;2023-04-24T00:28:37;11.30;99.90
3860;DHT22;1945;52.036;8.614;2023-04-24T00:31:04;11.20;99.90
3860;DHT22;1945;52.036;8.614;2023-04-24T00:33:30;11.20;99.90
3860;DHT22;1945;52.036;8.614;2023-04-24T00:35:57;10.80;99.90
3860;DHT22;1945;52.036;8.614;2023-04-24T00:38:24;10.80;99.90
3860;DHT22;1945;52.036;8.614;2023-04-24T00:40:51;10.80;99.90
3860;DHT22;1945;52.036;8.614;2023-04-24T00:43:20;10.80;99.90
3860;DHT22;1945;52.036;8.614;2023-04-24T00:45:47;10.80;99.90
3860;DHT22;1945;52.036;8.614;2023-04-24T00:48:14;10.80;99.90
3860;DHT22;1945;52.036;8.614;2023-04-24T00:50:42;10.80;99.90
3860;DHT22;1945;52.036;8.614;2023-04-24T00:53:08;11.00;99.90
3860;DHT22;1945;52.036;8.614;2023-04-24T00:55:35;11.20;99.90
3860;DHT22;1945;52.036;8.614;2023-04-24T00:58:03;11.10;99.90
3860;DHT22;1945;52.036;8.614;2023-04-24T01:00:32;11.10;99.90
3860;DHT22;1945;52.036;8.614;2023-04-24T01:03:01;10.70;99.90
3860;DHT22;1945;52.036;8.614;2023-04-24T01:05:31;10.70;99.90
3860;DHT22;1945;52.036;8.614;2023-04-24T01:07:59;10.70;99.90
3860;DHT22;1945;52.036;8.614;2023-04-24T01:10:27;10.70;99.90
3860;DHT22;1945;52.036;8.614;2023-04-24T01:12:55;10.70;99.90
3860;DHT22;1945;52.036;8.614;2023-04-24T01:15:22;11.00;99.90
3860;DHT22;1945;52.036;8.614;2023-04-24T01:17:51;10.70;99.90
3860;DHT22;1945;52.036;8.614;2023-04-24T01:20:17;10.70;99.90
3860;DHT22;1945;52.036;8.614;2023-04-24T01:22:45;10.80;99.90
3860;DHT22;1945;52.036;8.614;2023-04-24T01:25:12;10.70;99.90
3860;DHT22;1945;52.036;8.614;2023-04-24T01:27:39;10.70;99.90
3860;DHT22;1945;52.036;8.614;2023-04-24T01:30:07;10.70;99.90
3860;DHT22;1945;52.036;8.614;2023-04-24T01:32:34;10.70;99.90
3860;DHT22;1945;52.036;8.614;2023-04-24T01:35:01;10.70;99.90
3860;DHT22;1945;52.036;8.614;2023-04-24T01:37:29;10.70;99.90
3860;DHT22;1945;52.036;8.614;2023-04-24T01:39:59;10.70;99.90
3860;DHT22;1945;52.036;8.614;2023-04-24T01:42:25;10.70;99.90
3860;DHT22;1945;52.036;8.614;2023-04-24T01:44:52;10.60;99.90
3860;DHT22;1945;52.036;8.614;2023-04-24T01:47:20;10.50;99.90
3860;DHT22;1945;52.036;8.614;2023-04-24T01:49:48;10.50;99.90
3860;DHT22;1945;52.036;8.614;2023-04-24T01:52:16;10.50;99.90
3860;DHT22;1945;52.036;8.614;2023-04-24T01:54:43;10.40;99.90
3860;DHT22;1945;52.036;8.614;2023-04-24T01:57:11;10.40;99.90
3860;DHT22;1945;52.036;8.614;2023-04-24T01:59:37;10.40;99.90
3860;DHT22;1945;52.036;8.614;2023-04-24T02:02:04;10.40;99.90
3860;DHT22;1945;52.036;8.614;2023-04-24T02:04:31;10.40;99.90
3860;DHT22;1945;52.036;8.614;2023-04-24T02:06:58;10.30;99.90
3860;DHT22;1945;52.036;8.614;2023-04-24T02:09:24;10.30;99.90
3860;DHT22;1945;52.036;8.614;2023-04-24T02:11:51;10.30;99.90
3860;DHT22;1945;52.036;8.614;2023-04-24T02:14:19;10.30;99.90
3860;DHT22;1945;52.036;8.614;2023-04-24T02:16:46;10.30;99.90
3860;DHT22;1945;52.036;8.614;2023-04-24T02:19:13;10.20;99.90
3860;DHT22;1945;52.036;8.614;2023-04-24T02:21:39;10.20;99.90
3860;DHT22;1945;52.036;8.614;2023-04-24T02:24:06;10.20;99.90
3860;DHT22;1945;52.036;8.614;2023-04-24T02:26:33;10.20;99.90
3860;DHT22;1945;52.036;8.614;2023-04-24T02:29:00;10.20;99.90
3860;DHT22;1945;52.036;8.614;2023-04-24T02:31:28;10.10;99.90
3860;DHT22;1945;52.036;8.614;2023-04-24T02:33:54;10.20;99.90
3860;DHT22;1945;52.036;8.614;2023-04-24T02:36:26;10.10;99.90
3860;DHT22;1945;52.036;8.614;2023-04-24T02:38:53;10.40;99.90
3860;DHT22;1945;52.036;8.614;2023-04-24T02:41:19;10.10;99.90
3860;DHT22;1945;52.036;8.614;2023-04-24T02:43:46;10.00;99.90
3860;DHT22;1945;52.036;8.614;2023-04-24T02:46:12;10.10;99.90
3860;DHT22;1945;52.036;8.614;2023-04-24T02:48:41;10.10;99.90
3860;DHT22;1945;52.036;8.614;2023-04-24T02:51:07;10.10;99.90
3860;DHT22;1945;52.036;8.614;2023-04-24T02:53:35;10.00;99.90
3860;DHT22;1945;52.036;8.614;2023-04-24T02:56:01;10.00;99.90
3860;DHT22;1945;52.036;8.614;2023-04-24T02:58:28;10.00;99.90
3860;DHT22;1945;52.036;8.614;2023-04-24T03:00:55;10.00;99.90
3860;DHT22;1945;52.036;8.614;2023-04-24T03:03:23;10.40;99.90
3860;DHT22;1945;52.036;8.614;2023-04-24T03:05:51;10.30;99.90
3860;DHT22;1945;52.036;8.614;2023-04-24T03:08:18;10.00;99.90
3860;DHT22;1945;52.036;8.614;2023-04-24T03:10:45;10.00;99.90
3860;DHT22;1945;52.036;8.614;2023-04-24T03:13:12;10.10;99.90
3860;DHT22;1945;52.036;8.614;2023-04-24T03:15:38;10.10;99.90
3860;DHT22;1945;52.036;8.614;2023-04-24T03:18:05;10.10;99.90
3860;DHT22;1945;52.036;8.614;2023-04-24T03:20:32;10.10;99.90
3860;DHT22;1945;52.036;8.614;2023-04-24T03:23:00;10.60;99.90
3860;DHT22;1945;52.036;8.614;2023-04-24T03:25:26;10.20;99.90
3860;DHT22;1945;52.036;8.614;2023-04-24T03:27:53;10.20;99.90
3860;DHT22;1945;52.036;8.614;2023-04-24T03:30:20;10.30;99.90
3860;DHT22;1945;52.036;8.614;2023-04-24T03:32:46;10.30;99.90
3860;DHT22;1945;52.036;8.614;2023-04-24T03:35:13;10.40;99.90
3860;DHT22;1945;52.036;8.614;2023-04-24T03:37:40;10.40;99.90
3860;DHT22;1945;52.036;8.614;2023-04-24T03:40:09;10.30;99.90
3860;DHT22;1945;52.036;8.614;2023-04-24T03:42:36;10.40;99.90
3860;DHT22;1945;52.036;8.614;2023-04-24T03:45:03;10.70;99.90
3860;DHT22;1945;52.036;8.614;2023-04-24T03:47:29;10.40;99.90
3860;DHT22;1945;52.036;8.614;2023-04-24T03:49:56;10.40;99.90
3860;DHT22;1945;52.036;8.614;2023-04-24T03:52:23;10.40;99.90
3860;DHT22;1945;52.036;8.614;2023-04-24T03:54:49;10.40;99.90
3860;DHT22;1945;52.036;8.614;2023-04-24T03:57:17;10.40;99.90
3860;DHT22;1945;52.036;8.614;2023-04-24T03:59:44;10.40;99.90
3860;DHT22;1945;52.036;8.614;2023-04-24T04:02:11;10.40;99.90
3860;DHT22;1945;52.036;8.614;2023-04-24T04:04:37;10.40;99.90
3860;DHT22;1945;52.036;8.614;2023-04-24T04:07:04;10.40;99.90
3860;DHT22;1945;52.036;8.614;2023-04-24T04:09:31;10.40;99.90
3860;DHT22;1945;52.036;8.614;2023-04-24T04:11:58;10.70;99.90
3860;DHT22;1945;52.036;8.614;2023-04-24T04:14:27;10.40;99.90
3860;DHT22;1945;52.036;8.614;2023-04-24T04:16:53;10.40;99.90
3860;DHT22;1945;52.036;8.614;2023-04-24T04:19:20;10.50;99.90
3860;DHT22;1945;52.036;8.614;2023-04-24T04:21:47;10.40;99.90
3860;DHT22;1945;52.036;8.614;2023-04-24T04:24:17;10.40;99.90
3860;DHT22;1945;52.036;8.614;2023-04-24T04:26:44;10.50;99.90
3860;DHT22;1945;52.036;8.614;2023-04-24T04:29:12;10.40;99.90
3860;DHT22;1945;52.036;8.614;2023-04-24T04:31:40;10.50;99.90
3860;DHT22;1945;52.036;8.614;2023-04-24T04:34:07;10.50;99.90
3860;DHT22;1945;52.036;8.614;2023-04-24T04:36:34;10.50;99.90
3860;DHT22;1945;52.036;8.614;2023-04-24T04:39:02;10.50;99.90
3860;DHT22;1945;52.036;8.614;2023-04-24T04:41:29;10.70;99.90
3860;DHT22;1945;52.036;8.614;2023-04-24T04:43:55;10.50;99.90
3860;DHT22;1945;52.036;8.614;2023-04-24T04:46:24;10.50;99.90
3860;DHT22;1945;52.036;8.614;2023-04-24T04:48:53;10.50;99.90
3860;DHT22;1945;52.036;8.614;2023-04-24T04:51:20;10.90;99.90
3860;DHT22;1945;52.036;8.614;2023-04-24T04:53:46;10.60;99.90
3860;DHT22;1945;52.036;8.614;2023-04-24T04:56:13;10.50;99.90
3860;DHT22;1945;52.036;8.614;2023-04-24T04:58:40;10.50;99.90
3860;DHT22;1945;52.036;8.614;2023-04-24T05:01:06;10.50;99.90
3860;DHT22;1945;52.036;8.614;2023-04-24T05:03:33;10.50;99.90
3860;DHT22;1945;52.036;8.614;2023-04-24T05:06:01;10.40;99.90
3860;DHT22;1945;52.036;8.614;2023-04-24T05:08:28;10.70;99.90
3860;DHT22;1945;52.036;8.614;2023-04-24T05:10:55;10.10;99.90
3860;DHT22;1945;52.036;8.614;2023-04-24T05:13:22;10.10;99.90
3860;DHT22;1945;52.036;8.614;2023-04-24T05:15:48;10.10;99.90
3860;DHT22;1945;52.036;8.614;2023-04-24T05:18:15;10.00;99.90
3860;DHT22;1945;52.036;8.614;2023-04-24T05:20:42;10.00;99.90
3860;DHT22;1945;52.036;8.614;2023-04-24T05:23:10;10.00;99.90
3860;DHT22;1945;52.036;8.614;2023-04-24T05:25:37;10.00;99.90
3860;DHT22;1945;52.036;8.614;2023-04-24T05:28:05;10.00;99.90
3860;DHT22;1945;52.036;8.614;2023-04-24T05:30:32;10.00;99.90
3860;DHT22;1945;52.036;8.614;2023-04-24T05:32:58;10.10;99.90
3860;DHT22;1945;52.036;8.614;2023-04-24T05:35:25;10.10;99.90
3860;DHT22;1945;52.036;8.614;2023-04-24T05:37:52;10.00;99.90
3860;DHT22;1945;52.036;8.614;2023-04-24T05:40:20;10.10;99.90
3860;DHT22;1945;52.036;8.614;2023-04-24T05:42:46;10.10;99.90
3860;DHT22;1945;52.036;8.614;2023-04-24T05:45:13;10.20;99.90
3860;DHT22;1945;52.036;8.614;2023-04-24T05:47:42;10.20;99.90
3860;DHT22;1945;52.036;8.614;2023-04-24T05:50:09;10.20;99.90
3860;DHT22;1945;52.036;8.614;2023-04-24T05:52:36;10.20;99.90
3860;DHT22;1945;52.036;8.614;2023-04-24T05:55:04;10.20;99.90
3860;DHT22;1945;52.036;8.614;2023-04-24T05:57:32;10.20;99.90
3860;DHT22;1945;52.036;8.614;2023-04-24T05:59:59;10.20;99.90
3860;DHT22;1945;52.036;8.614;2023-04-24T06:02:26;10.20;99.90
3860;DHT22;1945;52.036;8.614;2023-04-24T06:04:53;10.20;99.90
3860;DHT22;1945;52.036;8.614;2023-04-24T06:07:20;10.20;99.90
3860;DHT22;1945;52.036;8.614;2023-04-24T06:09:47;10.20;99.90
3860;DHT22;1945;52.036;8.614;2023-04-24T06:12:14;10.20;99.90
3860;DHT22;1945;52.036;8.614;2023-04-24T06:14:42;10.30;99.90
3860;DHT22;1945;52.036;8.614;2023-04-24T06:17:09;10.70;99.90
3860;DHT22;1945;52.036;8.614;2023-04-24T06:19:35;10.60;99.90
3860;DHT22;1945;52.036;8.614;2023-04-24T06:22:02;10.30;99.90
3860;DHT22;1945;52.036;8.614;2023-04-24T06:24:29;10.50;99.90
3860;DHT22;1945;52.036;8.614;2023-04-24T06:26:56;10.30;99.90
3860;DHT22;1945;52.036;8.614;2023-04-24T06:29:25;10.30;99.90
3860;DHT22;1945;52.036;8.614;2023-04-24T06:31:53;10.30;99.90
3860;DHT22;1945;52.036;8.614;2023-04-24T06:34:20;10.20;99.90
3860;DHT22;1945;52.036;8.614;2023-04-24T06:36:47;10.30;99.90
3860;DHT22;1945;52.036;8.614;2023-04-24T06:39:13;10.30;99.90
3860;DHT22;1945;52.036;8.614;2023-04-24T06:41:40;10.30;99.90
3860;DHT22;1945;52.036;8.614;2023-04-24T06:44:07;10.30;99.90
3860;DHT22;1945;52.036;8.614;2023-04-24T06:46:34;10.30;99.90
3860;DHT22;1945;52.036;8.614;2023-04-24T06:49:02;10.30;99.90
3860;DHT22;1945;52.036;8.614;2023-04-24T06:51:29;10.30;99.90
3860;DHT22;1945;52.036;8.614;2023-04-24T06:53:56;10.20;99.90
3860;DHT22;1945;52.036;8.614;2023-04-24T06:56:23;10.30;99.90
3860;DHT22;1945;52.036;8.614;2023-04-24T06:58:50;10.20;99.90
3860;DHT22;1945;52.036;8.614;2023-04-24T07:01:17;10.30;99.90
3860;DHT22;1945;52.036;8.614;2023-04-24T07:03:44;10.30;99.90
3860;DHT22;1945;52.036;8.614;2023-04-24T07:06:12;10.40;99.90
3860;DHT22;1945;52.036;8.614;2023-04-24T07:08:39;10.40;99.90
3860;DHT22;1945;52.036;8.614;2023-04-24T07:11:07;10.30;99.90
3860;DHT22;1945;52.036;8.614;2023-04-24T07:13:33;10.40;99.90
3860;DHT22;1945;52.036;8.614;2023-04-24T07:16:01;10.40;99.90
3860;DHT22;1945;52.036;8.614;2023-04-24T07:18:27;10.40;99.90
3860;DHT22;1945;52.036;8.614;2023-04-24T07:20:54;10.40;99.90
3860;DHT22;1945;52.036;8.614;2023-04-24T07:23:23;10.40;99.90
3860;DHT22;1945;52.036;8.614;2023-04-24T07:25:50;10.50;99.90
3860;DHT22;1945;52.036;8.614;2023-04-24T07:28:16;10.40;99.90
3860;DHT22;1945;52.036;8.614;2023-04-24T07:30:43;10.50;99.90
3860;DHT22;1945;52.036;8.614;2023-04-24T07:33:10;10.50;99.90
3860;DHT22;1945;52.036;8.614;2023-04-24T07:35:38;10.50;99.90
3860;DHT22;1945;52.036;8.614;2023-04-24T07:38:05;10.50;99.90
3860;DHT22;1945;52.036;8.614;2023-04-24T07:40:33;10.60;99.90
3860;DHT22;1945;52.036;8.614;2023-04-24T07:43:00;10.70;99.90
3860;DHT22;1945;52.036;8.614;2023-04-24T07:45:27;10.70;99.90
3860;DHT22;1945;52.036;8.614;2023-04-24T07:47:53;10.60;97.90
3860;DHT22;1945;52.036;8.614;2023-04-24T07:50:20;10.60;99.80
3860;DHT22;1945;52.036;8.614;2023-04-24T07:52:47;10.60;94.60
3860;DHT22;1945;52.036;8.614;2023-04-24T07:55:14;10.50;87.10
3860;DHT22;1945;52.036;8.614;2023-04-24T07:57:42;10.60;40.70
3860;DHT22;1945;52.036;8.614;2023-04-24T08:00:10;10.30;92.80
3860;DHT22;1945;52.036;8.614;2023-04-24T08:02:37;10.60;57.30
3860;DHT22;1945;52.036;8.614;2023-04-24T08:05:04;10.70;46.30
3860;DHT22;1945;52.036;8.614;2023-04-24T08:07:31;10.90;91.70
3860;DHT22;1945;52.036;8.614;2023-04-24T08:09:58;11.10;20.80
3860;DHT22;1945;52.036;8.614;2023-04-24T08:12:25;11.00;26.00
3860;DHT22;1945;52.036;8.614;2023-04-24T08:14:53;11.00;20.10
3860;DHT22;1945;52.036;8.614;2023-04-24T08:17:20;11.00;1.00
3860;DHT22;1945;52.036;8.614;2023-04-24T08:19:47;11.00;32.30
3860;DHT22;1945;52.036;8.614;2023-04-24T08:22:14;10.80;1.00
3860;DHT22;1945;52.036;8.614;2023-04-24T08:24:40;10.80;48.40
3860;DHT22;1945;52.036;8.614;2023-04-24T08:27:08;10.80;21.00
3860;DHT22;1945;52.036;8.614;2023-04-24T08:29:35;10.70;1.00
3860;DHT22;1945;52.036;8.614;2023-04-24T08:32:03;10.80;43.10
3860;DHT22;1945;52.036;8.614;2023-04-24T08:34:30;10.70;1.00
3860;DHT22;1945;52.036;8.614;2023-04-24T08:36:56;10.70;41.90
3860;DHT22;1945;52.036;8.614;2023-04-24T08:39:23;11.00;50.30
3860;DHT22;1945;52.036;8.614;2023-04-24T08:41:50;11.00;1.00
3860;DHT22;1945;52.036;8.614;2023-04-24T08:44:19;11.20;1.00
3860;DHT22;1945;52.036;8.614;2023-04-24T08:46:48;11.30;1.00
3860;DHT22;1945;52.036;8.614;2023-04-24T08:49:18;11.40;1.00
3860;DHT22;1945;52.036;8.614;2023-04-24T08:51:45;11.60;1.00
3860;DHT22;1945;52.036;8.614;2023-04-24T08:54:13;11.70;1.00
3860;DHT22;1945;52.036;8.614;2023-04-24T08:56:40;11.50;1.00
3860;DHT22;1945;52.036;8.614;2023-04-24T08:59:09;11.50;1.00
3860;DHT22;1945;52.036;8.614;2023-04-24T09:01:37;11.30;1.00
3860;DHT22;1945;52.036;8.614;2023-04-24T09:04:07;11.20;1.00
3860;DHT22;1945;52.036;8.614;2023-04-24T09:06:36;11.20;1.00
3860;DHT22;1945;52.036;8.614;2023-04-24T09:09:03;11.00;1.00
3860;DHT22;1945;52.036;8.614;2023-04-24T09:11:31;11.00;1.00
3860;DHT22;1945;52.036;8.614;2023-04-24T09:13:58;11.00;1.00
3860;DHT22;1945;52.036;8.614;2023-04-24T09:16:26;11.20;1.00
3860;DHT22;1945;52.036;8.614;2023-04-24T09:18:53;11.00;1.00
3860;DHT22;1945;52.036;8.614;2023-04-24T09:21:21;11.10;1.00
3860;DHT22;1945;52.036;8.614;2023-04-24T09:23:57;11.10;1.00
3860;DHT22;1945;52.036;8.614;2023-04-24T09:26:24;11.50;1.00
3860;DHT22;1945;52.036;8.614;2023-04-24T09:28:51;11.10;1.00
3860;DHT22;1945;52.036;8.614;2023-04-24T09:31:19;11.20;1.00
3860;DHT22;1945;52.036;8.614;2023-04-24T09:33:53;11.20;1.00
3860;DHT22;1945;52.036;8.614;2023-04-24T09:36:27;11.10;1.00
3860;DHT22;1945;52.036;8.614;2023-04-24T09:38:57;11.20;1.00
3860;DHT22;1945;52.036;8.614;2023-04-24T09:41:24;11.00;1.00
3860;DHT22;1945;52.036;8.614;2023-04-24T09:43:53;10.90;1.00
3860;DHT22;1945;52.036;8.614;2023-04-24T09:46:20;11.10;1.00
3860;DHT22;1945;52.036;8.614;2023-04-24T09:48:48;11.20;1.00
3860;DHT22;1945;52.036;8.614;2023-04-24T09:51:14;11.30;1.00
3860;DHT22;1945;52.036;8.614;2023-04-24T09:53:45;11.20;1.00
3860;DHT22;1945;52.036;8.614;2023-04-24T09:56:13;11.50;1.00
3860;DHT22;1945;52.036;8.614;2023-04-24T09:58:40;11.60;1.00
3860;DHT22;1945;52.036;8.614;2023-04-24T10:01:07;11.50;1.00
3860;DHT22;1945;52.036;8.614;2023-04-24T10:03:35;11.50;1.00
3860;DHT22;1945;52.036;8.614;2023-04-24T10:06:02;11.20;1.00
3860;DHT22;1945;52.036;8.614;2023-04-24T10:08:34;11.30;1.00
3860;DHT22;1945;52.036;8.614;2023-04-24T10:11:01;11.20;1.00
3860;DHT22;1945;52.036;8.614;2023-04-24T10:13:30;11.00;1.00
3860;DHT22;1945;52.036;8.614;2023-04-24T10:15:59;10.80;31.50
3860;DHT22;1945;52.036;8.614;2023-04-24T10:18:27;10.80;1.20
3860;DHT22;1945;52.036;8.614;2023-04-24T10:20:54;10.80;14.70
3860;DHT22;1945;52.036;8.614;2023-04-24T10:23:21;10.90;1.00
3860;DHT22;1945;52.036;8.614;2023-04-24T10:25:49;10.80;1.00
3860;DHT22;1945;52.036;8.614;2023-04-24T10:28:18;10.90;1.00
3860;DHT22;1945;52.036;8.614;2023-04-24T10:30:47;10.90;1.00
3860;DHT22;1945;52.036;8.614;2023-04-24T10:33:14;10.90;1.00
3860;DHT22;1945;52.036;8.614;2023-04-24T10:35:44;10.90;1.00
3860;DHT22;1945;52.036;8.614;2023-04-24T10:38:12;11.00;1.00
3860;DHT22;1945;52.036;8.614;2023-04-24T10:40:40;10.90;67.70
3860;DHT22;1945;52.036;8.614;2023-04-24T10:43:08;11.10;99.90
3860;DHT22;1945;52.036;8.614;2023-04-24T10:45:36;11.10;99.90
3860;DHT22;1945;52.036;8.614;2023-04-24T10:48:06;11.10;99.90
3860;DHT22;1945;52.036;8.614;2023-04-24T10:50:44;11.30;1.00
3860;DHT22;1945;52.036;8.614;2023-04-24T10:53:16;11.20;1.00
3860;DHT22;1945;52.036;8.614;2023-04-24T10:55:45;10.90;99.90
3860;DHT22;1945;52.036;8.614;2023-04-24T10:58:12;10.90;1.00
3860;DHT22;1945;52.036;8.614;2023-04-24T11:00:41;10.80;1.00
3860;DHT22;1945;52.036;8.614;2023-04-24T11:03:23;10.60;1.00
3860;DHT22;1945;52.036;8.614;2023-04-24T11:05:52;10.70;1.00
3860;DHT22;1945;52.036;8.614;2023-04-24T11:08:25;10.80;1.00
3860;DHT22;1945;52.036;8.614;2023-04-24T11:10:58;10.70;1.00
3860;DHT22;1945;52.036;8.614;2023-04-24T11:13:26;10.60;1.00
3860;DHT22;1945;52.036;8.614;2023-04-24T11:16:12;10.70;1.00
3860;DHT22;1945;52.036;8.614;2023-04-24T11:18:42;10.40;1.00
3860;DHT22;1945;52.036;8.614;2023-04-24T11:21:11;10.50;75.30
3860;DHT22;1945;52.036;8.614;2023-04-24T11:23:38;10.20;94.00
3860;DHT22;1945;52.036;8.614;2023-04-24T11:26:13;10.20;99.90
3860;DHT22;1945;52.036;8.614;2023-04-24T11:28:47;10.20;99.90
3860;DHT22;1945;52.036;8.614;2023-04-24T11:31:36;10.00;99.90
3860;DHT22;1945;52.036;8.614;2023-04-24T11:34:09;10.00;99.90
3860;DHT22;1945;52.036;8.614;2023-04-24T11:36:36;10.10;99.90
3860;DHT22;1945;52.036;8.614;2023-04-24T11:39:03;10.50;99.90
3860;DHT22;1945;52.036;8.614;2023-04-24T11:41:30;10.60;99.90
3860;DHT22;1945;52.036;8.614;2023-04-24T11:43:57;10.60;99.90
3860;DHT22;1945;52.036;8.614;2023-04-24T11:46:28;10.20;33.10
3860;DHT22;1945;52.036;8.614;2023-04-24T11:48:56;10.20;99.90
3860;DHT22;1945;52.036;8.614;2023-04-24T11:51:25;9.90;41.10
3860;DHT22;1945;52.036;8.614;2023-04-24T11:53:52;9.90;91.70
3860;DHT22;1945;52.036;8.614;2023-04-24T11:56:19;10.00;56.70
3860;DHT22;1945;52.036;8.614;2023-04-24T11:58:47;10.10;99.90
3860;DHT22;1945;52.036;8.614;2023-04-24T12:01:14;10.00;85.40
3860;DHT22;1945;52.036;8.614;2023-04-24T12:03:41;9.80;20.50
3860;DHT22;1945;52.036;8.614;2023-04-24T12:06:10;10.10;99.90
3860;DHT22;1945;52.036;8.614;2023-04-24T12:08:39;10.00;39.20
3860;DHT22;1945;52.036;8.614;2023-04-24T12:11:06;10.20;99.90
3860;DHT22;1945;52.036;8.614;2023-04-24T12:13:33;9.90;99.90
3860;DHT22;1945;52.036;8.614;2023-04-24T12:16:02;9.90;99.90
3860;DHT22;1945;52.036;8.614;2023-04-24T12:18:29;10.00;99.90
3860;DHT22;1945;52.036;8.614;2023-04-24T12:21:14;9.90;99.90
3860;DHT22;1945;52.036;8.614;2023-04-24T12:23:44;9.90;99.90
3860;DHT22;1945;52.036;8.614;2023-04-24T12:26:11;9.90;99.90
3860;DHT22;1945;52.036;8.614;2023-04-24T12:28:39;9.90;99.90
3860;DHT22;1945;52.036;8.614;2023-04-24T12:31:06;9.80;99.90
3860;DHT22;1945;52.036;8.614;2023-04-24T12:33:35;9.80;99.90
3860;DHT22;1945;52.036;8.614;2023-04-24T12:36:02;9.70;99.90
3860;DHT22;1945;52.036;8.614;2023-04-24T12:38:29;9.60;99.90
3860;DHT22;1945;52.036;8.614;2023-04-24T12:41:05;9.70;99.90
3860;DHT22;1945;52.036;8.614;2023-04-24T12:43:32;9.70;99.90
3860;DHT22;1945;52.036;8.614;2023-04-24T12:45:59;9.70;99.90
3860;DHT22;1945;52.036;8.614;2023-04-24T12:48:26;9.70;99.90
3860;DHT22;1945;52.036;8.614;2023-04-24T12:50:52;9.70;99.90
3860;DHT22;1945;52.036;8.614;2023-04-24T12:53:20;9.70;99.90
3860;DHT22;1945;52.036;8.614;2023-04-24T12:55:47;9.70;99.90
3860;DHT22;1945;52.036;8.614;2023-04-24T12:58:19;9.70;99.90
3860;DHT22;1945;52.036;8.614;2023-04-24T13:00:46;9.60;99.90
3860;DHT22;1945;52.036;8.614;2023-04-24T13:03:13;9.70;1.00
3860;DHT22;1945;52.036;8.614;2023-04-24T13:05:40;9.70;1.00
3860;DHT22;1945;52.036;8.614;2023-04-24T13:08:07;9.70;1.00
3860;DHT22;1945;52.036;8.614;2023-04-24T13:10:34;9.70;1.00
3860;DHT22;1945;52.036;8.614;2023-04-24T13:13:01;9.80;1.00
3860;DHT22;1945;52.036;8.614;2023-04-24T13:15:29;9.80;1.00
3860;DHT22;1945;52.036;8.614;2023-04-24T13:17:56;9.70;1.00
3860;DHT22;1945;52.036;8.614;2023-04-24T13:20:22;9.70;1.00
3860;DHT22;1945;52.036;8.614;2023-04-24T13:22:49;9.70;1.00
3860;DHT22;1945;52.036;8.614;2023-04-24T13:25:16;9.70;1.00
3860;DHT22;1945;52.036;8.614;2023-04-24T13:27:43;9.50;1.00
3860;DHT22;1945;52.036;8.614;2023-04-24T13:30:11;9.40;99.90
3860;DHT22;1945;52.036;8.614;2023-04-24T13:32:39;9.40;1.00
3860;DHT22;1945;52.036;8.614;2023-04-24T13:35:06;9.50;1.00
3860;DHT22;1945;52.036;8.614;2023-04-24T13:37:33;9.50;99.90
3860;DHT22;1945;52.036;8.614;2023-04-24T13:39:59;9.40;99.90
3860;DHT22;1945;52.036;8.614;2023-04-24T13:42:27;9.40;1.00
3860;DHT22;1945;52.036;8.614;2023-04-24T13:44:53;9.30;1.00
3860;DHT22;1945;52.036;8.614;2023-04-24T13:47:20;9.30;1.00
3860;DHT22;1945;52.036;8.614;2023-04-24T13:49:48;9.30;1.00
3860;DHT22;1945;52.036;8.614;2023-04-24T13:52:15;9.40;1.00
3860;DHT22;1945;52.036;8.614;2023-04-24T13:54:42;9.50;1.00
3860;DHT22;1945;52.036;8.614;2023-04-24T13:57:09;9.50;1.00
3860;DHT22;1945;52.036;8.614;2023-04-24T13:59:35;9.50;1.00
3860;DHT22;1945;52.036;8.614;2023-04-24T14:02:02;9.60;1.00
3860;DHT22;1945;52.036;8.614;2023-04-24T14:04:29;9.70;1.00
3860;DHT22;1945;52.036;8.614;2023-04-24T14:06:57;9.60;99.90
3860;DHT22;1945;52.036;8.614;2023-04-24T14:09:29;10.10;99.90
3860;DHT22;1945;52.036;8.614;2023-04-24T14:11:56;9.60;99.90
3860;DHT22;1945;52.036;8.614;2023-04-24T14:14:23;9.50;99.90
3860;DHT22;1945;52.036;8.614;2023-04-24T14:16:49;9.60;1.00
3860;DHT22;1945;52.036;8.614;2023-04-24T14:19:16;9.60;1.00
3860;DHT22;1945;52.036;8.614;2023-04-24T14:21:43;9.70;1.00
3860;DHT22;1945;52.036;8.614;2023-04-24T14:24:11;9.70;99.90
3860;DHT22;1945;52.036;8.614;2023-04-24T14:26:38;10.10;99.90
3860;DHT22;1945;52.036;8.614;2023-04-24T14:29:05;10.00;99.90
3860;DHT22;1945;52.036;8.614;2023-04-24T14:31:31;10.00;99.90
3860;DHT22;1945;52.036;8.614;2023-04-24T14:33:58;10.00;99.90
3860;DHT22;1945;52.036;8.614;2023-04-24T14:36:25;10.00;99.90
3860;DHT22;1945;52.036;8.614;2023-04-24T14:38:51;10.00;99.90
3860;DHT22;1945;52.036;8.614;2023-04-24T14:41:22;10.10;99.90
3860;DHT22;1945;52.036;8.614;2023-04-24T14:43:49;10.00;99.90
3860;DHT22;1945;52.036;8.614;2023-04-24T14:46:16;9.90;99.90
3860;DHT22;1945;52.036;8.614;2023-04-24T14:48:42;10.10;99.90
3860;DHT22;1945;52.036;8.614;2023-04-24T14:51:09;10.60;99.90
3860;DHT22;1945;52.036;8.614;2023-04-24T14:53:36;10.20;99.90
3860;DHT22;1945;52.036;8.614;2023-04-24T14:56:03;10.00;99.90
3860;DHT22;1945;52.036;8.614;2023-04-24T14:58:31;9.90;99.90
3860;DHT22;1945;52.036;8.614;2023-04-24T15:00:58;9.70;99.90
3860;DHT22;1945;52.036;8.614;2023-04-24T15:03:24;9.60;99.90
3860;DHT22;1945;52.036;8.614;2023-04-24T15:05:52;9.60;99.90
3860;DHT22;1945;52.036;8.614;2023-04-24T15:08:18;9.60;99.90
3860;DHT22;1945;52.036;8.614;2023-04-24T15:10:45;9.70;99.90
3860;DHT22;1945;52.036;8.614;2023-04-24T15:13:12;9.50;99.90
3860;DHT22;1945;52.036;8.614;2023-04-24T15:15:40;10.10;99.90
3860;DHT22;1945;52.036;8.614;2023-04-24T15:18:08;9.60;99.90
3860;DHT22;1945;52.036;8.614;2023-04-24T15:20:36;9.60;99.90
3860;DHT22;1945;52.036;8.614;2023-04-24T15:23:04;9.70;99.90
3860;DHT22;1945;52.036;8.614;2023-04-24T15:25:31;9.70;99.90
3860;DHT22;1945;52.036;8.614;2023-04-24T15:27:58;9.70;99.90
3860;DHT22;1945;52.036;8.614;2023-04-24T15:30:25;10.00;99.90
3860;DHT22;1945;52.036;8.614;2023-04-24T15:32:53;9.70;99.90
3860;DHT22;1945;52.036;8.614;2023-04-24T15:35:20;9.80;99.90
3860;DHT22;1945;52.036;8.614;2023-04-24T15:37:46;9.70;99.90
3860;DHT22;1945;52.036;8.614;2023-04-24T15:40:13;9.70;99.90
3860;DHT22;1945;52.036;8.614;2023-04-24T15:42:41;9.60;99.50
3860;DHT22;1945;52.036;8.614;2023-04-24T15:45:09;9.60;99.90
3860;DHT22;1945;52.036;8.614;2023-04-24T15:47:36;9.50;21.80
3860;DHT22;1945;52.036;8.614;2023-04-24T15:50:05;9.50;1.00
3860;DHT22;1945;52.036;8.614;2023-04-24T15:52:33;9.50;95.70
3860;DHT22;1945;52.036;8.614;2023-04-24T15:55:03;9.80;98.00
3860;DHT22;1945;52.036;8.614;2023-04-24T15:57:31;9.60;57.80
3860;DHT22;1945;52.036;8.614;2023-04-24T15:59:57;9.70;70.40
3860;DHT22;1945;52.036;8.614;2023-04-24T16:02:25;9.70;21.10
3860;DHT22;1945;52.036;8.614;2023-04-24T16:04:52;9.50;1.00
3860;DHT22;1945;52.036;8.614;2023-04-24T16:07:20;10.00;1.00
3860;DHT22;1945;52.036;8.614;2023-04-24T16:09:47;9.90;9.40
3860;DHT22;1945;52.036;8.614;2023-04-24T16:12:13;9.60;1.00